Air Navigation Services of Czech Republic
Airport: LKPJ Updated:  03.10.2022 11:00:33  UTC
 METAR LKPJ 03.10. 11:00 ...
METAR LKPJ 031100Z AUTO 30017KT 9999 BKN035/// OVC058/// 14/07 Q1019=